sensor_id;sensor_type;location;lat;lon;timestamp;P1;durP1;ratioP1;P2;durP2;ratioP2
4278;SDS011;2153;47.744;10.580;2023-06-14T00:02:13;16.67;;;5.60;;
4278;SDS011;2153;47.744;10.580;2023-06-14T00:04:40;16.90;;;5.10;;
4278;SDS011;2153;47.744;10.580;2023-06-14T00:07:08;16.00;;;5.13;;
4278;SDS011;2153;47.744;10.580;2023-06-14T00:09:35;16.07;;;5.10;;
4278;SDS011;2153;47.744;10.580;2023-06-14T00:12:03;15.33;;;4.70;;
4278;SDS011;2153;47.744;10.580;2023-06-14T00:14:31;18.07;;;5.20;;
4278;SDS011;2153;47.744;10.580;2023-06-14T00:16:57;15.60;;;4.40;;
4278;SDS011;2153;47.744;10.580;2023-06-14T00:19:24;16.93;;;4.73;;
4278;SDS011;2153;47.744;10.580;2023-06-14T00:21:52;22.90;;;4.97;;
4278;SDS011;2153;47.744;10.580;2023-06-14T00:24:19;17.60;;;4.43;;
4278;SDS011;2153;47.744;10.580;2023-06-14T00:26:46;21.03;;;5.53;;
4278;SDS011;2153;47.744;10.580;2023-06-14T00:29:15;17.17;;;5.67;;
4278;SDS011;2153;47.744;10.580;2023-06-14T00:31:41;16.90;;;5.37;;
4278;SDS011;2153;47.744;10.580;2023-06-14T00:34:08;16.50;;;5.37;;
4278;SDS011;2153;47.744;10.580;2023-06-14T00:36:35;17.17;;;5.67;;
4278;SDS011;2153;47.744;10.580;2023-06-14T00:39:01;16.87;;;4.50;;
4278;SDS011;2153;47.744;10.580;2023-06-14T00:41:28;17.57;;;5.33;;
4278;SDS011;2153;47.744;10.580;2023-06-14T00:43:55;19.13;;;5.60;;
4278;SDS011;2153;47.744;10.580;2023-06-14T00:46:23;17.30;;;4.70;;
4278;SDS011;2153;47.744;10.580;2023-06-14T00:48:50;14.80;;;4.50;;
4278;SDS011;2153;47.744;10.580;2023-06-14T00:51:17;16.70;;;5.00;;
4278;SDS011;2153;47.744;10.580;2023-06-14T00:53:44;16.37;;;5.00;;
4278;SDS011;2153;47.744;10.580;2023-06-14T00:56:12;18.63;;;4.60;;
4278;SDS011;2153;47.744;10.580;2023-06-14T00:58:39;14.80;;;4.17;;
4278;SDS011;2153;47.744;10.580;2023-06-14T01:01:06;20.53;;;5.00;;
4278;SDS011;2153;47.744;10.580;2023-06-14T01:03:34;14.10;;;4.00;;
4278;SDS011;2153;47.744;10.580;2023-06-14T01:06:05;17.30;;;4.50;;
4278;SDS011;2153;47.744;10.580;2023-06-14T01:08:43;14.07;;;4.33;;
4278;SDS011;2153;47.744;10.580;2023-06-14T01:11:17;16.80;;;5.17;;
4278;SDS011;2153;47.744;10.580;2023-06-14T01:13:51;21.43;;;5.07;;
4278;SDS011;2153;47.744;10.580;2023-06-14T01:16:19;16.77;;;4.37;;
4278;SDS011;2153;47.744;10.580;2023-06-14T01:18:47;21.50;;;5.57;;
4278;SDS011;2153;47.744;10.580;2023-06-14T01:21:21;15.37;;;4.57;;
4278;SDS011;2153;47.744;10.580;2023-06-14T01:23:49;17.10;;;4.47;;
4278;SDS011;2153;47.744;10.580;2023-06-14T01:26:18;16.43;;;5.17;;
4278;SDS011;2153;47.744;10.580;2023-06-14T01:28:45;18.47;;;6.03;;
4278;SDS011;2153;47.744;10.580;2023-06-14T01:31:15;17.30;;;5.33;;
4278;SDS011;2153;47.744;10.580;2023-06-14T01:33:43;21.50;;;5.87;;
4278;SDS011;2153;47.744;10.580;2023-06-14T01:36:11;16.07;;;5.13;;
4278;SDS011;2153;47.744;10.580;2023-06-14T01:38:38;19.33;;;5.67;;
4278;SDS011;2153;47.744;10.580;2023-06-14T01:41:07;15.00;;;4.63;;
4278;SDS011;2153;47.744;10.580;2023-06-14T01:43:35;15.47;;;5.17;;
4278;SDS011;2153;47.744;10.580;2023-06-14T01:46:02;19.07;;;5.40;;
4278;SDS011;2153;47.744;10.580;2023-06-14T01:48:30;15.77;;;5.00;;
4278;SDS011;2153;47.744;10.580;2023-06-14T01:50:56;17.60;;;5.50;;
4278;SDS011;2153;47.744;10.580;2023-06-14T01:53:23;16.80;;;5.17;;
4278;SDS011;2153;47.744;10.580;2023-06-14T01:55:49;16.93;;;5.10;;
4278;SDS011;2153;47.744;10.580;2023-06-14T01:58:20;15.47;;;4.90;;
4278;SDS011;2153;47.744;10.580;2023-06-14T02:00:46;16.50;;;5.20;;
4278;SDS011;2153;47.744;10.580;2023-06-14T02:03:13;17.67;;;5.73;;
4278;SDS011;2153;47.744;10.580;2023-06-14T02:05:40;15.20;;;4.70;;
4278;SDS011;2153;47.744;10.580;2023-06-14T02:08:06;16.03;;;5.10;;
4278;SDS011;2153;47.744;10.580;2023-06-14T02:10:33;17.30;;;4.50;;
4278;SDS011;2153;47.744;10.580;2023-06-14T02:13:00;14.93;;;4.83;;
4278;SDS011;2153;47.744;10.580;2023-06-14T02:15:28;14.00;;;4.00;;
4278;SDS011;2153;47.744;10.580;2023-06-14T02:17:58;15.30;;;4.50;;
4278;SDS011;2153;47.744;10.580;2023-06-14T02:20:26;16.27;;;5.17;;
4278;SDS011;2153;47.744;10.580;2023-06-14T02:22:53;16.93;;;5.00;;
4278;SDS011;2153;47.744;10.580;2023-06-14T02:25:20;16.63;;;5.37;;
4278;SDS011;2153;47.744;10.580;2023-06-14T02:27:47;16.23;;;5.03;;
4278;SDS011;2153;47.744;10.580;2023-06-14T02:30:13;14.93;;;5.03;;
4278;SDS011;2153;47.744;10.580;2023-06-14T02:32:42;16.67;;;5.50;;
4278;SDS011;2153;47.744;10.580;2023-06-14T02:35:08;17.03;;;5.30;;
4278;SDS011;2153;47.744;10.580;2023-06-14T02:37:35;15.50;;;5.20;;
4278;SDS011;2153;47.744;10.580;2023-06-14T02:40:02;18.67;;;5.33;;
4278;SDS011;2153;47.744;10.580;2023-06-14T02:42:30;21.83;;;4.67;;
4278;SDS011;2153;47.744;10.580;2023-06-14T02:44:57;21.90;;;4.90;;
4278;SDS011;2153;47.744;10.580;2023-06-14T02:47:24;17.30;;;5.50;;
4278;SDS011;2153;47.744;10.580;2023-06-14T02:49:52;15.97;;;5.20;;
4278;SDS011;2153;47.744;10.580;2023-06-14T02:52:18;16.50;;;4.90;;
4278;SDS011;2153;47.744;10.580;2023-06-14T02:54:45;16.50;;;5.77;;
4278;SDS011;2153;47.744;10.580;2023-06-14T02:57:12;15.83;;;5.00;;
4278;SDS011;2153;47.744;10.580;2023-06-14T02:59:38;15.90;;;4.97;;
4278;SDS011;2153;47.744;10.580;2023-06-14T03:02:05;17.63;;;5.67;;
4278;SDS011;2153;47.744;10.580;2023-06-14T03:04:32;15.97;;;4.60;;
4278;SDS011;2153;47.744;10.580;2023-06-14T03:07:03;20.47;;;5.87;;
4278;SDS011;2153;47.744;10.580;2023-06-14T03:09:34;17.73;;;5.10;;
4278;SDS011;2153;47.744;10.580;2023-06-14T03:12:01;19.60;;;4.87;;
4278;SDS011;2153;47.744;10.580;2023-06-14T03:14:28;16.30;;;5.40;;
4278;SDS011;2153;47.744;10.580;2023-06-14T03:16:55;17.57;;;5.17;;
4278;SDS011;2153;47.744;10.580;2023-06-14T03:19:22;16.20;;;5.47;;
4278;SDS011;2153;47.744;10.580;2023-06-14T03:21:48;18.20;;;4.80;;
4278;SDS011;2153;47.744;10.580;2023-06-14T03:24:16;17.40;;;6.07;;
4278;SDS011;2153;47.744;10.580;2023-06-14T03:26:43;15.90;;;5.20;;
4278;SDS011;2153;47.744;10.580;2023-06-14T03:29:10;16.10;;;5.50;;
4278;SDS011;2153;47.744;10.580;2023-06-14T03:31:41;16.77;;;5.20;;
4278;SDS011;2153;47.744;10.580;2023-06-14T03:34:22;19.70;;;5.27;;
4278;SDS011;2153;47.744;10.580;2023-06-14T03:36:49;20.13;;;5.57;;
4278;SDS011;2153;47.744;10.580;2023-06-14T03:39:17;20.47;;;5.20;;
4278;SDS011;2153;47.744;10.580;2023-06-14T03:41:44;16.60;;;5.37;;
4278;SDS011;2153;47.744;10.580;2023-06-14T03:44:10;16.33;;;5.77;;
4278;SDS011;2153;47.744;10.580;2023-06-14T03:46:37;15.97;;;5.60;;
4278;SDS011;2153;47.744;10.580;2023-06-14T03:49:04;16.67;;;5.80;;
4278;SDS011;2153;47.744;10.580;2023-06-14T03:51:30;18.23;;;5.40;;
4278;SDS011;2153;47.744;10.580;2023-06-14T03:53:57;18.33;;;5.17;;
4278;SDS011;2153;47.744;10.580;2023-06-14T03:56:25;17.20;;;5.33;;
4278;SDS011;2153;47.744;10.580;2023-06-14T03:58:51;16.50;;;5.60;;
4278;SDS011;2153;47.744;10.580;2023-06-14T04:01:18;20.83;;;6.07;;
4278;SDS011;2153;47.744;10.580;2023-06-14T04:03:46;15.57;;;5.07;;
4278;SDS011;2153;47.744;10.580;2023-06-14T04:06:12;16.43;;;5.10;;
4278;SDS011;2153;47.744;10.580;2023-06-14T04:08:44;17.87;;;6.20;;
4278;SDS011;2153;47.744;10.580;2023-06-14T04:11:10;15.83;;;5.77;;
4278;SDS011;2153;47.744;10.580;2023-06-14T04:13:39;16.67;;;5.80;;
4278;SDS011;2153;47.744;10.580;2023-06-14T04:16:05;15.60;;;5.33;;
4278;SDS011;2153;47.744;10.580;2023-06-14T04:18:32;21.27;;;6.10;;
4278;SDS011;2153;47.744;10.580;2023-06-14T04:20:59;17.70;;;5.10;;
4278;SDS011;2153;47.744;10.580;2023-06-14T04:23:25;22.33;;;6.07;;
4278;SDS011;2153;47.744;10.580;2023-06-14T04:25:53;17.90;;;5.47;;
4278;SDS011;2153;47.744;10.580;2023-06-14T04:28:19;15.50;;;5.70;;
4278;SDS011;2153;47.744;10.580;2023-06-14T04:30:53;18.57;;;5.97;;
4278;SDS011;2153;47.744;10.580;2023-06-14T04:33:19;16.00;;;6.10;;
4278;SDS011;2153;47.744;10.580;2023-06-14T04:35:47;15.70;;;6.03;;
4278;SDS011;2153;47.744;10.580;2023-06-14T04:38:18;15.80;;;5.60;;
4278;SDS011;2153;47.744;10.580;2023-06-14T04:40:49;19.17;;;5.50;;
4278;SDS011;2153;47.744;10.580;2023-06-14T04:43:17;17.07;;;5.80;;
4278;SDS011;2153;47.744;10.580;2023-06-14T04:45:50;19.20;;;5.50;;
4278;SDS011;2153;47.744;10.580;2023-06-14T04:48:18;19.07;;;5.63;;
4278;SDS011;2153;47.744;10.580;2023-06-14T04:50:45;19.10;;;5.87;;
4278;SDS011;2153;47.744;10.580;2023-06-14T04:53:12;22.03;;;5.90;;
4278;SDS011;2153;47.744;10.580;2023-06-14T04:55:38;18.00;;;6.00;;
4278;SDS011;2153;47.744;10.580;2023-06-14T04:58:09;19.83;;;6.60;;
4278;SDS011;2153;47.744;10.580;2023-06-14T05:00:37;16.20;;;5.57;;
4278;SDS011;2153;47.744;10.580;2023-06-14T05:03:04;14.97;;;5.10;;
4278;SDS011;2153;47.744;10.580;2023-06-14T05:05:33;19.90;;;5.80;;
4278;SDS011;2153;47.744;10.580;2023-06-14T05:08:00;16.60;;;5.67;;
4278;SDS011;2153;47.744;10.580;2023-06-14T05:10:26;16.23;;;5.40;;
4278;SDS011;2153;47.744;10.580;2023-06-14T05:12:53;17.83;;;5.73;;
4278;SDS011;2153;47.744;10.580;2023-06-14T05:15:19;15.87;;;5.47;;
4278;SDS011;2153;47.744;10.580;2023-06-14T05:17:53;17.47;;;6.10;;
4278;SDS011;2153;47.744;10.580;2023-06-14T05:20:20;17.00;;;5.70;;
4278;SDS011;2153;47.744;10.580;2023-06-14T05:22:51;21.87;;;6.80;;
4278;SDS011;2153;47.744;10.580;2023-06-14T05:25:18;18.80;;;5.93;;
4278;SDS011;2153;47.744;10.580;2023-06-14T05:27:45;20.43;;;5.53;;
4278;SDS011;2153;47.744;10.580;2023-06-14T05:30:12;20.00;;;5.77;;
4278;SDS011;2153;47.744;10.580;2023-06-14T05:32:39;17.93;;;5.63;;
4278;SDS011;2153;47.744;10.580;2023-06-14T05:35:06;17.37;;;6.00;;
4278;SDS011;2153;47.744;10.580;2023-06-14T05:37:33;23.40;;;5.80;;
4278;SDS011;2153;47.744;10.580;2023-06-14T05:40:01;17.10;;;5.23;;
4278;SDS011;2153;47.744;10.580;2023-06-14T05:42:30;16.10;;;5.27;;
4278;SDS011;2153;47.744;10.580;2023-06-14T05:44:57;25.10;;;6.00;;
4278;SDS011;2153;47.744;10.580;2023-06-14T05:47:24;19.03;;;5.67;;
4278;SDS011;2153;47.744;10.580;2023-06-14T05:49:50;17.87;;;5.23;;
4278;SDS011;2153;47.744;10.580;2023-06-14T05:52:17;17.37;;;5.63;;
4278;SDS011;2153;47.744;10.580;2023-06-14T05:54:44;25.40;;;7.23;;
4278;SDS011;2153;47.744;10.580;2023-06-14T05:57:12;16.37;;;5.33;;
4278;SDS011;2153;47.744;10.580;2023-06-14T05:59:39;22.97;;;6.37;;
4278;SDS011;2153;47.744;10.580;2023-06-14T06:02:05;18.20;;;5.80;;
4278;SDS011;2153;47.744;10.580;2023-06-14T06:04:32;17.60;;;5.30;;
4278;SDS011;2153;47.744;10.580;2023-06-14T06:06:58;17.50;;;5.67;;
4278;SDS011;2153;47.744;10.580;2023-06-14T06:09:25;17.07;;;5.10;;
4278;SDS011;2153;47.744;10.580;2023-06-14T06:11:52;20.70;;;5.60;;
4278;SDS011;2153;47.744;10.580;2023-06-14T06:14:20;19.40;;;5.73;;
4278;SDS011;2153;47.744;10.580;2023-06-14T06:16:47;19.90;;;6.33;;
4278;SDS011;2153;47.744;10.580;2023-06-14T06:19:14;26.03;;;5.67;;
4278;SDS011;2153;47.744;10.580;2023-06-14T06:21:40;17.70;;;5.10;;
4278;SDS011;2153;47.744;10.580;2023-06-14T06:24:07;16.50;;;5.30;;
4278;SDS011;2153;47.744;10.580;2023-06-14T06:26:34;19.37;;;5.43;;
4278;SDS011;2153;47.744;10.580;2023-06-14T06:29:00;14.90;;;4.77;;
4278;SDS011;2153;47.744;10.580;2023-06-14T06:31:28;18.40;;;4.77;;
4278;SDS011;2153;47.744;10.580;2023-06-14T06:33:55;17.90;;;4.83;;
4278;SDS011;2153;47.744;10.580;2023-06-14T06:36:21;16.20;;;5.47;;
4278;SDS011;2153;47.744;10.580;2023-06-14T06:38:48;17.80;;;5.43;;
4278;SDS011;2153;47.744;10.580;2023-06-14T06:41:15;20.20;;;5.37;;
4278;SDS011;2153;47.744;10.580;2023-06-14T06:43:41;17.90;;;5.47;;
4278;SDS011;2153;47.744;10.580;2023-06-14T06:46:08;17.00;;;5.87;;
4278;SDS011;2153;47.744;10.580;2023-06-14T06:48:36;16.33;;;5.33;;
4278;SDS011;2153;47.744;10.580;2023-06-14T06:51:03;17.70;;;5.30;;
4278;SDS011;2153;47.744;10.580;2023-06-14T06:53:30;16.40;;;5.23;;
4278;SDS011;2153;47.744;10.580;2023-06-14T06:55:57;20.27;;;4.83;;
4278;SDS011;2153;47.744;10.580;2023-06-14T06:58:23;22.57;;;4.70;;
4278;SDS011;2153;47.744;10.580;2023-06-14T07:00:50;35.95;;;4.60;;
4278;SDS011;2153;47.744;10.580;2023-06-14T07:03:17;21.00;;;5.03;;
4278;SDS011;2153;47.744;10.580;2023-06-14T07:05:45;19.05;;;5.30;;
4278;SDS011;2153;47.744;10.580;2023-06-14T07:08:12;26.60;;;5.00;;
4278;SDS011;2153;47.744;10.580;2023-06-14T07:10:38;17.43;;;4.70;;
4278;SDS011;2153;47.744;10.580;2023-06-14T07:13:05;19.97;;;5.13;;
4278;SDS011;2153;47.744;10.580;2023-06-14T07:15:32;16.60;;;4.20;;
4278;SDS011;2153;47.744;10.580;2023-06-14T07:17:58;21.83;;;5.13;;
4278;SDS011;2153;47.744;10.580;2023-06-14T07:20:25;16.17;;;4.30;;
4278;SDS011;2153;47.744;10.580;2023-06-14T07:22:53;17.03;;;4.13;;
4278;SDS011;2153;47.744;10.580;2023-06-14T07:25:20;15.57;;;3.37;;
4278;SDS011;2153;47.744;10.580;2023-06-14T07:27:47;13.60;;;3.60;;
4278;SDS011;2153;47.744;10.580;2023-06-14T07:30:13;16.73;;;4.63;;
4278;SDS011;2153;47.744;10.580;2023-06-14T07:32:40;15.17;;;4.73;;
4278;SDS011;2153;47.744;10.580;2023-06-14T07:35:07;21.33;;;3.70;;
4278;SDS011;2153;47.744;10.580;2023-06-14T07:37:34;19.10;;;3.70;;
4278;SDS011;2153;47.744;10.580;2023-06-14T07:40:02;15.20;;;4.00;;
4278;SDS011;2153;47.744;10.580;2023-06-14T07:42:32;15.10;;;3.80;;
4278;SDS011;2153;47.744;10.580;2023-06-14T07:44:59;16.97;;;3.90;;
4278;SDS011;2153;47.744;10.580;2023-06-14T07:47:26;14.10;;;3.40;;
4278;SDS011;2153;47.744;10.580;2023-06-14T07:49:52;15.03;;;3.77;;
4278;SDS011;2153;47.744;10.580;2023-06-14T07:52:19;16.13;;;3.70;;
4278;SDS011;2153;47.744;10.580;2023-06-14T07:54:46;14.93;;;3.47;;
4278;SDS011;2153;47.744;10.580;2023-06-14T07:57:14;13.87;;;3.77;;
4278;SDS011;2153;47.744;10.580;2023-06-14T07:59:40;16.80;;;3.60;;
4278;SDS011;2153;47.744;10.580;2023-06-14T08:02:07;20.43;;;3.87;;
4278;SDS011;2153;47.744;10.580;2023-06-14T08:04:34;14.80;;;4.23;;
4278;SDS011;2153;47.744;10.580;2023-06-14T08:07:01;15.80;;;4.23;;
4278;SDS011;2153;47.744;10.580;2023-06-14T08:09:27;16.10;;;4.00;;
4278;SDS011;2153;47.744;10.580;2023-06-14T08:11:54;28.00;;;3.90;;
4278;SDS011;2153;47.744;10.580;2023-06-14T08:14:22;14.80;;;3.70;;
4278;SDS011;2153;47.744;10.580;2023-06-14T08:16:49;15.30;;;4.30;;
4278;SDS011;2153;47.744;10.580;2023-06-14T08:19:16;14.50;;;3.97;;
4278;SDS011;2153;47.744;10.580;2023-06-14T08:21:43;20.40;;;4.13;;
4278;SDS011;2153;47.744;10.580;2023-06-14T08:24:10;25.37;;;4.13;;
4278;SDS011;2153;47.744;10.580;2023-06-14T08:26:38;19.40;;;3.80;;
4278;SDS011;2153;47.744;10.580;2023-06-14T08:29:04;14.67;;;4.10;;
4278;SDS011;2153;47.744;10.580;2023-06-14T08:31:33;16.10;;;4.50;;
4278;SDS011;2153;47.744;10.580;2023-06-14T08:34:00;14.50;;;4.07;;
4278;SDS011;2153;47.744;10.580;2023-06-14T08:36:26;14.90;;;3.93;;
4278;SDS011;2153;47.744;10.580;2023-06-14T08:38:53;19.30;;;4.00;;
4278;SDS011;2153;47.744;10.580;2023-06-14T08:41:21;18.37;;;3.63;;
4278;SDS011;2153;47.744;10.580;2023-06-14T08:43:49;22.23;;;4.10;;
4278;SDS011;2153;47.744;10.580;2023-06-14T08:46:17;18.83;;;3.73;;
4278;SDS011;2153;47.744;10.580;2023-06-14T08:48:48;18.30;;;4.10;;
4278;SDS011;2153;47.744;10.580;2023-06-14T08:51:16;14.57;;;4.40;;
4278;SDS011;2153;47.744;10.580;2023-06-14T08:53:46;15.90;;;5.07;;
4278;SDS011;2153;47.744;10.580;2023-06-14T08:56:18;19.30;;;4.70;;
4278;SDS011;2153;47.744;10.580;2023-06-14T08:58:45;15.17;;;4.67;;
4278;SDS011;2153;47.744;10.580;2023-06-14T09:01:13;29.53;;;4.90;;
4278;SDS011;2153;47.744;10.580;2023-06-14T09:03:42;19.60;;;4.10;;
4278;SDS011;2153;47.744;10.580;2023-06-14T09:06:11;19.10;;;4.40;;
4278;SDS011;2153;47.744;10.580;2023-06-14T09:08:40;14.47;;;4.10;;
4278;SDS011;2153;47.744;10.580;2023-06-14T09:11:08;16.60;;;3.70;;
4278;SDS011;2153;47.744;10.580;2023-06-14T09:13:37;18.93;;;3.83;;
4278;SDS011;2153;47.744;10.580;2023-06-14T09:16:04;15.90;;;4.40;;
4278;SDS011;2153;47.744;10.580;2023-06-14T09:18:34;18.97;;;4.67;;
4278;SDS011;2153;47.744;10.580;2023-06-14T09:21:01;17.93;;;3.90;;
4278;SDS011;2153;47.744;10.580;2023-06-14T09:23:30;25.63;;;4.60;;
4278;SDS011;2153;47.744;10.580;2023-06-14T09:26:00;15.33;;;4.20;;
4278;SDS011;2153;47.744;10.580;2023-06-14T09:28:26;17.13;;;4.33;;
4278;SDS011;2153;47.744;10.580;2023-06-14T09:30:54;18.23;;;4.23;;
4278;SDS011;2153;47.744;10.580;2023-06-14T09:33:21;14.10;;;4.07;;
4278;SDS011;2153;47.744;10.580;2023-06-14T09:35:50;16.17;;;4.47;;
4278;SDS011;2153;47.744;10.580;2023-06-14T09:38:17;18.17;;;3.83;;
4278;SDS011;2153;47.744;10.580;2023-06-14T09:40:45;19.20;;;4.50;;
4278;SDS011;2153;47.744;10.580;2023-06-14T09:43:12;18.87;;;3.90;;
4278;SDS011;2153;47.744;10.580;2023-06-14T09:45:38;20.83;;;4.27;;
4278;SDS011;2153;47.744;10.580;2023-06-14T09:48:06;20.53;;;4.17;;
4278;SDS011;2153;47.744;10.580;2023-06-14T09:50:33;18.20;;;4.13;;
4278;SDS011;2153;47.744;10.580;2023-06-14T09:53:02;16.27;;;4.40;;
4278;SDS011;2153;47.744;10.580;2023-06-14T09:55:31;15.60;;;3.87;;
4278;SDS011;2153;47.744;10.580;2023-06-14T09:58:04;15.67;;;3.83;;
4278;SDS011;2153;47.744;10.580;2023-06-14T10:17:50;14.80;;;4.10;;
4278;SDS011;2153;47.744;10.580;2023-06-14T10:20:23;18.27;;;3.80;;
4278;SDS011;2153;47.744;10.580;2023-06-14T10:22:56;13.63;;;4.00;;
4278;SDS011;2153;47.744;10.580;2023-06-14T10:25:28;17.93;;;4.40;;
4278;SDS011;2153;47.744;10.580;2023-06-14T10:28:02;17.17;;;4.87;;
4278;SDS011;2153;47.744;10.580;2023-06-14T10:30:32;16.90;;;4.17;;
4278;SDS011;2153;47.744;10.580;2023-06-14T10:33:04;14.10;;;3.73;;
4278;SDS011;2153;47.744;10.580;2023-06-14T10:35:32;13.87;;;4.13;;
4278;SDS011;2153;47.744;10.580;2023-06-14T10:38:06;17.40;;;4.13;;
4278;SDS011;2153;47.744;10.580;2023-06-14T10:40:34;13.07;;;3.60;;
4278;SDS011;2153;47.744;10.580;2023-06-14T10:43:06;17.60;;;4.27;;
4278;SDS011;2153;47.744;10.580;2023-06-14T10:48:41;12.97;;;3.80;;
4278;SDS011;2153;47.744;10.580;2023-06-14T10:51:14;13.93;;;3.87;;
4278;SDS011;2153;47.744;10.580;2023-06-14T10:53:45;13.63;;;3.70;;
4278;SDS011;2153;47.744;10.580;2023-06-14T10:56:22;16.07;;;4.90;;
4278;SDS011;2153;47.744;10.580;2023-06-14T10:58:52;18.90;;;4.30;;
4278;SDS011;2153;47.744;10.580;2023-06-14T11:01:23;16.90;;;4.27;;
4278;SDS011;2153;47.744;10.580;2023-06-14T11:04:00;14.20;;;4.60;;
4278;SDS011;2153;47.744;10.580;2023-06-14T11:06:45;18.30;;;4.20;;
4278;SDS011;2153;47.744;10.580;2023-06-14T11:12:13;13.43;;;3.70;;
4278;SDS011;2153;47.744;10.580;2023-06-14T11:14:41;13.57;;;3.60;;
4278;SDS011;2153;47.744;10.580;2023-06-14T11:17:11;18.50;;;3.50;;
4278;SDS011;2153;47.744;10.580;2023-06-14T11:19:38;18.43;;;3.83;;
4278;SDS011;2153;47.744;10.580;2023-06-14T11:22:05;22.23;;;3.77;;
4278;SDS011;2153;47.744;10.580;2023-06-14T11:24:32;14.83;;;3.77;;
4278;SDS011;2153;47.744;10.580;2023-06-14T11:26:59;15.83;;;3.80;;
4278;SDS011;2153;47.744;10.580;2023-06-14T11:29:26;12.40;;;3.63;;
4278;SDS011;2153;47.744;10.580;2023-06-14T11:31:55;13.80;;;3.37;;
4278;SDS011;2153;47.744;10.580;2023-06-14T11:34:24;12.20;;;3.37;;
4278;SDS011;2153;47.744;10.580;2023-06-14T11:36:50;15.97;;;3.50;;
4278;SDS011;2153;47.744;10.580;2023-06-14T11:39:17;12.57;;;3.50;;
4278;SDS011;2153;47.744;10.580;2023-06-14T11:41:50;16.53;;;3.90;;
4278;SDS011;2153;47.744;10.580;2023-06-14T11:44:16;16.77;;;5.03;;
4278;SDS011;2153;47.744;10.580;2023-06-14T11:46:43;23.63;;;4.13;;
4278;SDS011;2153;47.744;10.580;2023-06-14T11:49:11;15.00;;;4.10;;
4278;SDS011;2153;47.744;10.580;2023-06-14T11:51:39;14.50;;;4.23;;
4278;SDS011;2153;47.744;10.580;2023-06-14T11:54:06;15.93;;;3.50;;
4278;SDS011;2153;47.744;10.580;2023-06-14T11:56:33;14.83;;;4.30;;
4278;SDS011;2153;47.744;10.580;2023-06-14T11:59:02;16.10;;;4.03;;
4278;SDS011;2153;47.744;10.580;2023-06-14T12:01:30;15.60;;;4.20;;
4278;SDS011;2153;47.744;10.580;2023-06-14T12:13:50;17.03;;;4.13;;
4278;SDS011;2153;47.744;10.580;2023-06-14T12:16:16;15.50;;;3.80;;
4278;SDS011;2153;47.744;10.580;2023-06-14T12:18:43;16.87;;;4.13;;
4278;SDS011;2153;47.744;10.580;2023-06-14T12:21:10;13.87;;;3.77;;
4278;SDS011;2153;47.744;10.580;2023-06-14T12:23:44;13.20;;;3.70;;
4278;SDS011;2153;47.744;10.580;2023-06-14T12:26:14;14.10;;;3.80;;
4278;SDS011;2153;47.744;10.580;2023-06-14T12:28:42;15.73;;;4.00;;
4278;SDS011;2153;47.744;10.580;2023-06-14T12:31:08;17.27;;;3.80;;
4278;SDS011;2153;47.744;10.580;2023-06-14T12:33:37;13.83;;;3.80;;
4278;SDS011;2153;47.744;10.580;2023-06-14T12:36:04;25.67;;;3.97;;
4278;SDS011;2153;47.744;10.580;2023-06-14T12:38:32;17.47;;;3.60;;
4278;SDS011;2153;47.744;10.580;2023-06-14T12:40:59;13.67;;;3.30;;
4278;SDS011;2153;47.744;10.580;2023-06-14T12:43:27;12.60;;;3.80;;
4278;SDS011;2153;47.744;10.580;2023-06-14T12:45:54;20.03;;;3.87;;
4278;SDS011;2153;47.744;10.580;2023-06-14T12:48:21;12.83;;;3.40;;
4278;SDS011;2153;47.744;10.580;2023-06-14T12:50:48;12.43;;;3.20;;
4278;SDS011;2153;47.744;10.580;2023-06-14T12:53:14;29.13;;;4.20;;
4278;SDS011;2153;47.744;10.580;2023-06-14T12:55:42;13.50;;;3.80;;
4278;SDS011;2153;47.744;10.580;2023-06-14T12:58:08;14.27;;;4.10;;
4278;SDS011;2153;47.744;10.580;2023-06-14T13:00:38;13.40;;;3.33;;
4278;SDS011;2153;47.744;10.580;2023-06-14T13:03:05;13.93;;;4.20;;
4278;SDS011;2153;47.744;10.580;2023-06-14T13:05:32;14.23;;;3.50;;
4278;SDS011;2153;47.744;10.580;2023-06-14T13:07:58;13.90;;;3.50;;
4278;SDS011;2153;47.744;10.580;2023-06-14T13:10:26;14.17;;;3.70;;
4278;SDS011;2153;47.744;10.580;2023-06-14T13:12:53;14.00;;;3.93;;
4278;SDS011;2153;47.744;10.580;2023-06-14T13:15:20;21.83;;;3.87;;
4278;SDS011;2153;47.744;10.580;2023-06-14T13:17:48;19.70;;;3.80;;
4278;SDS011;2153;47.744;10.580;2023-06-14T13:20:15;17.63;;;3.70;;
4278;SDS011;2153;47.744;10.580;2023-06-14T13:22:42;12.50;;;3.30;;
4278;SDS011;2153;47.744;10.580;2023-06-14T13:25:09;13.20;;;3.73;;
4278;SDS011;2153;47.744;10.580;2023-06-14T13:27:35;13.63;;;3.50;;
4278;SDS011;2153;47.744;10.580;2023-06-14T13:30:03;15.67;;;4.00;;
4278;SDS011;2153;47.744;10.580;2023-06-14T13:32:30;15.93;;;3.70;;
4278;SDS011;2153;47.744;10.580;2023-06-14T13:34:58;22.73;;;4.50;;
4278;SDS011;2153;47.744;10.580;2023-06-14T13:37:25;14.00;;;3.90;;
4278;SDS011;2153;47.744;10.580;2023-06-14T13:39:52;13.07;;;3.70;;
4278;SDS011;2153;47.744;10.580;2023-06-14T13:42:19;14.47;;;3.33;;
4278;SDS011;2153;47.744;10.580;2023-06-14T13:44:45;15.23;;;3.30;;
4278;SDS011;2153;47.744;10.580;2023-06-14T13:47:12;14.40;;;3.87;;
4278;SDS011;2153;47.744;10.580;2023-06-14T13:49:39;15.30;;;3.50;;
4278;SDS011;2153;47.744;10.580;2023-06-14T13:52:07;15.43;;;3.27;;
4278;SDS011;2153;47.744;10.580;2023-06-14T13:54:34;12.13;;;3.23;;
4278;SDS011;2153;47.744;10.580;2023-06-14T13:57:00;12.07;;;3.47;;
4278;SDS011;2153;47.744;10.580;2023-06-14T13:59:27;16.63;;;3.70;;
4278;SDS011;2153;47.744;10.580;2023-06-14T14:01:54;12.20;;;2.50;;
4278;SDS011;2153;47.744;10.580;2023-06-14T14:04:20;15.00;;;2.80;;
4278;SDS011;2153;47.744;10.580;2023-06-14T14:06:47;12.10;;;3.10;;
4278;SDS011;2153;47.744;10.580;2023-06-14T14:09:15;23.30;;;3.30;;
4278;SDS011;2153;47.744;10.580;2023-06-14T14:11:42;14.63;;;3.47;;
4278;SDS011;2153;47.744;10.580;2023-06-14T14:14:08;12.77;;;3.47;;
4278;SDS011;2153;47.744;10.580;2023-06-14T14:16:35;16.80;;;4.40;;
4278;SDS011;2153;47.744;10.580;2023-06-14T14:19:03;19.17;;;3.90;;
4278;SDS011;2153;47.744;10.580;2023-06-14T14:21:30;16.20;;;3.97;;
4278;SDS011;2153;47.744;10.580;2023-06-14T14:23:57;19.37;;;3.93;;
4278;SDS011;2153;47.744;10.580;2023-06-14T14:26:25;13.30;;;3.60;;
4278;SDS011;2153;47.744;10.580;2023-06-14T14:28:52;19.73;;;4.47;;
4278;SDS011;2153;47.744;10.580;2023-06-14T14:31:18;17.60;;;3.00;;
4278;SDS011;2153;47.744;10.580;2023-06-14T14:33:45;17.33;;;4.10;;
4278;SDS011;2153;47.744;10.580;2023-06-14T14:36:11;15.47;;;4.00;;
4278;SDS011;2153;47.744;10.580;2023-06-14T14:38:38;15.93;;;3.30;;
4278;SDS011;2153;47.744;10.580;2023-06-14T14:41:05;12.70;;;3.47;;
4278;SDS011;2153;47.744;10.580;2023-06-14T14:43:33;19.73;;;4.07;;
4278;SDS011;2153;47.744;10.580;2023-06-14T14:46:00;14.80;;;3.53;;
4278;SDS011;2153;47.744;10.580;2023-06-14T14:48:26;14.90;;;3.30;;
4278;SDS011;2153;47.744;10.580;2023-06-14T14:50:53;17.83;;;4.27;;
4278;SDS011;2153;47.744;10.580;2023-06-14T14:53:19;13.73;;;3.70;;
4278;SDS011;2153;47.744;10.580;2023-06-14T14:55:46;15.20;;;3.20;;
4278;SDS011;2153;47.744;10.580;2023-06-14T14:58:13;12.43;;;3.50;;
4278;SDS011;2153;47.744;10.580;2023-06-14T15:00:44;20.73;;;4.00;;
4278;SDS011;2153;47.744;10.580;2023-06-14T15:03:11;15.03;;;4.00;;
4278;SDS011;2153;47.744;10.580;2023-06-14T15:05:37;17.33;;;4.10;;
4278;SDS011;2153;47.744;10.580;2023-06-14T15:08:04;12.90;;;3.70;;
4278;SDS011;2153;47.744;10.580;2023-06-14T15:10:35;13.83;;;3.60;;
4278;SDS011;2153;47.744;10.580;2023-06-14T15:13:02;13.30;;;3.50;;
4278;SDS011;2153;47.744;10.580;2023-06-14T15:15:29;16.50;;;3.93;;
4278;SDS011;2153;47.744;10.580;2023-06-14T15:17:57;17.40;;;3.80;;
4278;SDS011;2153;47.744;10.580;2023-06-14T15:20:25;14.60;;;3.50;;
4278;SDS011;2153;47.744;10.580;2023-06-14T15:22:51;17.73;;;3.73;;
4278;SDS011;2153;47.744;10.580;2023-06-14T15:25:18;13.90;;;3.57;;